createdAt,value
2019-03-23T00:01:26.404Z,43.57
2019-03-23T00:03:54.959Z,41.00
2019-03-23T00:06:30.854Z,43.57
2019-03-23T00:08:53.790Z,46.70
2019-03-23T00:11:22.394Z,44.73
2019-03-23T00:13:50.944Z,43.10
2019-03-23T00:16:19.498Z,44.30
2019-03-23T00:18:48.067Z,44.20
2019-03-23T00:21:16.621Z,40.67
2019-03-23T00:23:45.185Z,42.73
2019-03-23T00:26:14.059Z,42.33
2019-03-23T00:28:42.622Z,44.30
2019-03-23T00:31:11.247Z,48.63
2019-03-23T00:33:39.816Z,50.10
2019-03-23T00:36:08.363Z,50.70
2019-03-23T00:38:36.864Z,42.87
2019-03-23T00:41:05.419Z,41.97
2019-03-23T00:43:34.180Z,42.17
2019-03-23T00:46:02.730Z,41.83
2019-03-23T00:48:31.283Z,38.93
2019-03-23T00:50:59.854Z,43.10
2019-03-23T00:53:28.791Z,43.23
2019-03-23T00:55:57.407Z,41.97
2019-03-23T00:58:25.955Z,50.57
2019-03-23T01:00:54.600Z,48.20
2019-03-23T01:03:23.155Z,40.20
2019-03-23T01:05:51.749Z,44.90
2019-03-23T01:08:20.312Z,43.43
2019-03-23T01:10:48.887Z,48.03
2019-03-23T01:13:17.469Z,47.33
2019-03-23T01:15:48.092Z,48.47
2019-03-23T01:18:16.259Z,45.30
2019-03-23T01:20:49.537Z,43.80
2019-03-23T01:23:15.054Z,49.90
2019-03-23T01:25:43.580Z,51.57
2019-03-23T01:28:12.147Z,48.43
2019-03-23T01:30:40.626Z,46.67
2019-03-23T01:33:09.534Z,46.87
2019-03-23T01:35:38.412Z,40.83
2019-03-23T01:38:06.995Z,43.07
2019-03-23T01:40:36.426Z,44.93
2019-03-23T01:43:05.029Z,48.47
2019-03-23T01:45:33.511Z,42.80
2019-03-23T01:48:02.091Z,45.70
2019-03-23T01:50:30.669Z,43.20
2019-03-23T01:52:59.238Z,46.67
2019-03-23T01:55:27.798Z,49.03
2019-03-23T01:57:56.387Z,35.87
2019-03-23T02:00:25.244Z,44.20
2019-03-23T02:02:53.795Z,43.43
2019-03-23T02:05:22.368Z,45.90
2019-03-23T02:07:50.919Z,47.17
2019-03-23T02:10:19.496Z,42.87
2019-03-23T02:12:48.046Z,44.30
2019-03-23T02:15:16.791Z,50.07
2019-03-23T02:17:45.344Z,45.50
2019-03-23T02:20:14.754Z,46.70
2019-03-23T02:22:43.422Z,49.70
2019-03-23T02:25:12.376Z,48.37
2019-03-23T02:27:40.919Z,50.67
2019-03-23T02:30:11.318Z,43.60
2019-03-23T02:32:39.857Z,46.93
2019-03-23T02:35:08.948Z,47.13
2019-03-23T02:37:37.516Z,43.20
2019-03-23T02:40:07.713Z,42.77
2019-03-23T02:42:36.353Z,38.67
2019-03-23T02:45:09.651Z,45.70
2019-03-23T02:47:38.230Z,49.23
2019-03-23T02:50:08.916Z,46.43
2019-03-23T02:52:38.086Z,51.17
2019-03-23T02:55:08.458Z,46.63
2019-03-23T02:57:36.960Z,46.20
2019-03-23T03:00:14.213Z,45.13
2019-03-23T03:02:42.799Z,53.67
2019-03-23T03:05:11.763Z,46.73
2019-03-23T03:07:43.266Z,45.23
2019-03-23T03:10:12.469Z,44.17
2019-03-23T03:12:41.016Z,49.00
2019-03-23T03:15:10.327Z,49.10
2019-03-23T03:17:39.314Z,43.20
2019-03-23T03:20:09.321Z,46.07
2019-03-23T03:22:37.893Z,50.80
2019-03-23T03:25:08.088Z,51.17
2019-03-23T03:27:36.706Z,44.40
2019-03-23T03:30:10.725Z,45.60
2019-03-23T03:32:39.280Z,50.80
2019-03-23T03:35:08.994Z,48.67
2019-03-23T03:37:37.564Z,52.30
2019-03-23T03:40:07.361Z,48.10
2019-03-23T03:42:35.949Z,46.07
2019-03-23T03:45:07.399Z,46.17
2019-03-23T03:47:35.996Z,44.40
2019-03-23T03:50:07.852Z,46.63
2019-03-23T03:52:36.431Z,48.20
2019-03-23T03:55:07.116Z,48.53
2019-03-23T03:57:35.712Z,54.37
2019-03-23T04:00:09.447Z,47.77
2019-03-23T04:02:38.573Z,44.17
2019-03-23T04:05:08.447Z,50.77
2019-03-23T04:07:37.003Z,52.70
2019-03-23T04:10:08.127Z,48.00
2019-03-23T04:12:36.693Z,47.37
2019-03-23T04:15:08.108Z,50.27
2019-03-23T04:17:36.727Z,48.53
2019-03-23T04:20:08.025Z,40.53
2019-03-23T04:22:36.601Z,42.57
2019-03-23T04:25:10.281Z,44.77
2019-03-23T04:27:38.941Z,44.30
2019-03-23T04:30:10.197Z,44.10
2019-03-23T04:32:38.813Z,47.93
2019-03-23T04:35:08.428Z,47.37
2019-03-23T04:37:37.355Z,43.33
2019-03-23T04:40:09.045Z,42.37
2019-03-23T04:42:37.620Z,47.00
2019-03-23T04:45:08.507Z,46.63
2019-03-23T04:47:37.087Z,48.53
2019-03-23T04:50:08.570Z,52.53
2019-03-23T04:52:37.138Z,50.33
2019-03-23T04:55:08.807Z,46.17
2019-03-23T04:57:37.647Z,44.53
2019-03-23T05:00:09.438Z,46.93
2019-03-23T05:02:38.011Z,47.23
2019-03-23T05:05:06.904Z,49.03
2019-03-23T05:07:35.474Z,50.43
2019-03-23T05:10:05.503Z,51.67
2019-03-23T05:12:34.093Z,56.87
2019-03-23T05:15:02.650Z,109.57
2019-03-23T05:17:31.198Z,109.20
2019-03-23T05:19:59.787Z,98.40
2019-03-23T05:22:28.403Z,142.53
2019-03-23T05:24:56.979Z,215.60
2019-03-23T05:27:25.529Z,149.17
2019-03-23T05:29:54.170Z,126.77
2019-03-23T05:32:22.845Z,145.67
2019-03-23T05:34:51.431Z,126.47
2019-03-23T05:37:19.983Z,147.27
2019-03-23T05:39:48.949Z,142.50
2019-03-23T05:42:17.503Z,146.20
2019-03-23T05:44:46.096Z,148.07
2019-03-23T05:47:14.652Z,82.20
2019-03-23T05:49:43.234Z,73.13
2019-03-23T05:52:11.958Z,75.43
2019-03-23T05:54:40.531Z,71.27
2019-03-23T05:57:09.147Z,50.13
2019-03-23T05:59:37.773Z,53.47
2019-03-23T06:02:06.442Z,48.47
2019-03-23T06:04:35.276Z,52.43
2019-03-23T06:07:03.920Z,47.73
2019-03-23T06:09:32.462Z,50.57
2019-03-23T06:12:01.213Z,50.60
2019-03-23T06:14:29.765Z,54.83
2019-03-23T06:16:58.419Z,47.80
2019-03-23T06:19:26.979Z,47.40
2019-03-23T06:21:55.555Z,46.83
2019-03-23T06:24:24.117Z,47.83
2019-03-23T06:26:52.711Z,44.83
2019-03-23T06:29:21.377Z,44.30
2019-03-23T06:31:49.928Z,47.00
2019-03-23T06:34:18.499Z,42.90
2019-03-23T06:36:47.052Z,43.30
2019-03-23T06:39:15.623Z,59.93
2019-03-23T06:41:44.195Z,51.67
2019-03-23T06:44:12.788Z,51.93
2019-03-23T06:46:41.339Z,48.37
2019-03-23T06:49:10.222Z,50.30
2019-03-23T06:51:38.776Z,50.47
2019-03-23T06:54:07.347Z,45.00
2019-03-23T06:56:35.903Z,49.27
2019-03-23T06:59:04.571Z,52.13
2019-03-23T07:01:33.127Z,43.33
2019-03-23T07:04:01.686Z,43.83
2019-03-23T07:06:30.267Z,39.97
2019-03-23T07:08:59.281Z,37.67
2019-03-23T07:11:27.866Z,35.43
2019-03-23T07:13:56.426Z,41.00
2019-03-23T07:16:25.036Z,36.23
2019-03-23T07:18:53.591Z,42.23
2019-03-23T07:21:22.271Z,38.17
2019-03-23T07:23:50.842Z,38.90
2019-03-23T07:26:19.416Z,37.97
2019-03-23T07:28:47.990Z,38.73
2019-03-23T07:31:16.593Z,31.20
2019-03-23T07:33:45.223Z,35.07
2019-03-23T07:36:13.783Z,34.27
2019-03-23T07:38:42.459Z,33.73
2019-03-23T07:41:11.031Z,38.80
2019-03-23T07:43:39.620Z,31.23
2019-03-23T07:46:08.180Z,32.57
2019-03-23T07:48:36.758Z,37.43
2019-03-23T07:51:05.331Z,31.10
2019-03-23T07:53:33.919Z,36.73
2019-03-23T07:56:02.500Z,31.77
2019-03-23T07:58:31.155Z,31.25
2019-03-23T08:00:59.783Z,30.65
2019-03-23T08:03:28.379Z,32.63
2019-03-23T08:05:56.947Z,33.00
2019-03-23T08:08:25.519Z,26.52
2019-03-23T08:10:54.164Z,34.63
2019-03-23T08:13:22.848Z,227.15
2019-03-23T08:15:51.599Z,111.90
2019-03-23T08:18:20.148Z,79.40
2019-03-23T08:20:48.731Z,27.30
2019-03-23T08:23:17.290Z,29.77
2019-03-23T08:25:45.905Z,31.17
2019-03-23T08:28:14.465Z,33.10
2019-03-23T08:30:43.101Z,32.55
2019-03-23T08:33:12.117Z,32.45
2019-03-23T08:35:40.669Z,32.78
2019-03-23T08:38:09.241Z,34.55
2019-03-23T08:40:37.968Z,37.00
2019-03-23T08:43:06.530Z,32.05
2019-03-23T08:45:35.121Z,37.63
2019-03-23T08:48:03.755Z,45.33
2019-03-23T08:50:32.399Z,91.78
2019-03-23T08:53:00.994Z,35.75
2019-03-23T08:55:29.551Z,29.82
2019-03-23T08:57:58.507Z,29.45
2019-03-23T09:00:27.067Z,35.70
2019-03-23T09:02:55.711Z,35.23
2019-03-23T09:05:24.312Z,33.78
2019-03-23T09:07:52.900Z,36.95
2019-03-23T09:10:21.459Z,27.65
2019-03-23T09:12:50.048Z,30.12
2019-03-23T09:15:18.604Z,28.38
2019-03-23T09:17:47.159Z,28.75
2019-03-23T09:20:15.876Z,32.25
2019-03-23T09:22:44.455Z,29.23
2019-03-23T09:25:13.108Z,33.98
2019-03-23T09:27:41.663Z,31.05
2019-03-23T09:30:13.607Z,28.42
2019-03-23T09:32:42.298Z,34.10
2019-03-23T09:35:10.962Z,29.82
2019-03-23T09:37:39.460Z,32.42
2019-03-23T09:40:10.957Z,29.87
2019-03-23T09:42:39.695Z,33.50
2019-03-23T09:45:09.026Z,29.20
2019-03-23T09:47:37.794Z,53.15
2019-03-23T09:50:09.090Z,158.80
2019-03-23T09:52:37.741Z,164.88
2019-03-23T09:55:09.472Z,32.55
